sensor_id;sensor_type;location;lat;lon;timestamp;P1;durP1;ratioP1;P2;durP2;ratioP2
11238;SDS011;5677;48.488;13.436;2023-04-03T00:00:37;1.53;;;1.43;;
11238;SDS011;5677;48.488;13.436;2023-04-03T00:03:04;1.60;;;1.50;;
11238;SDS011;5677;48.488;13.436;2023-04-03T00:05:31;1.50;;;1.40;;
11238;SDS011;5677;48.488;13.436;2023-04-03T00:07:58;2.00;;;1.80;;
11238;SDS011;5677;48.488;13.436;2023-04-03T00:10:25;1.70;;;1.50;;
11238;SDS011;5677;48.488;13.436;2023-04-03T00:12:53;1.80;;;1.70;;
11238;SDS011;5677;48.488;13.436;2023-04-03T00:15:20;1.97;;;1.80;;
11238;SDS011;5677;48.488;13.436;2023-04-03T00:17:47;2.10;;;1.80;;
11238;SDS011;5677;48.488;13.436;2023-04-03T00:20:13;1.80;;;1.70;;
11238;SDS011;5677;48.488;13.436;2023-04-03T00:22:42;1.67;;;1.57;;
11238;SDS011;5677;48.488;13.436;2023-04-03T00:25:09;1.80;;;1.70;;
11238;SDS011;5677;48.488;13.436;2023-04-03T00:27:36;1.83;;;1.50;;
11238;SDS011;5677;48.488;13.436;2023-04-03T00:30:05;1.70;;;1.60;;
11238;SDS011;5677;48.488;13.436;2023-04-03T00:32:33;1.47;;;1.37;;
11238;SDS011;5677;48.488;13.436;2023-04-03T00:35:00;2.57;;;1.67;;
11238;SDS011;5677;48.488;13.436;2023-04-03T00:37:26;1.77;;;1.67;;
11238;SDS011;5677;48.488;13.436;2023-04-03T00:39:53;1.57;;;1.47;;
11238;SDS011;5677;48.488;13.436;2023-04-03T00:42:20;2.23;;;1.80;;
11238;SDS011;5677;48.488;13.436;2023-04-03T00:48:01;1.70;;;1.50;;
11238;SDS011;5677;48.488;13.436;2023-04-03T00:50:31;1.50;;;1.40;;
11238;SDS011;5677;48.488;13.436;2023-04-03T00:53:00;1.50;;;1.40;;
11238;SDS011;5677;48.488;13.436;2023-04-03T00:55:27;2.20;;;1.50;;
11238;SDS011;5677;48.488;13.436;2023-04-03T00:57:55;1.47;;;1.37;;
11238;SDS011;5677;48.488;13.436;2023-04-03T01:00:22;1.47;;;1.37;;
11238;SDS011;5677;48.488;13.436;2023-04-03T01:02:51;1.43;;;1.33;;
11238;SDS011;5677;48.488;13.436;2023-04-03T01:05:20;2.10;;;1.50;;
11238;SDS011;5677;48.488;13.436;2023-04-03T01:07:47;1.63;;;1.53;;
11238;SDS011;5677;48.488;13.436;2023-04-03T01:10:16;3.40;;;1.70;;
11238;SDS011;5677;48.488;13.436;2023-04-03T01:12:45;1.63;;;1.53;;
11238;SDS011;5677;48.488;13.436;2023-04-03T01:15:13;1.80;;;1.30;;
11238;SDS011;5677;48.488;13.436;2023-04-03T01:17:43;1.93;;;1.80;;
11238;SDS011;5677;48.488;13.436;2023-04-03T01:20:21;1.40;;;1.30;;
11238;SDS011;5677;48.488;13.436;2023-04-03T01:23:11;1.40;;;1.30;;
11238;SDS011;5677;48.488;13.436;2023-04-03T01:25:47;1.43;;;1.33;;
11238;SDS011;5677;48.488;13.436;2023-04-03T01:28:16;1.40;;;1.30;;
11238;SDS011;5677;48.488;13.436;2023-04-03T01:30:46;2.70;;;1.60;;
11238;SDS011;5677;48.488;13.436;2023-04-03T01:33:19;1.77;;;1.40;;
11238;SDS011;5677;48.488;13.436;2023-04-03T01:35:46;1.50;;;1.40;;
11238;SDS011;5677;48.488;13.436;2023-04-03T01:38:12;1.40;;;1.30;;
11238;SDS011;5677;48.488;13.436;2023-04-03T01:40:40;1.30;;;1.20;;
11238;SDS011;5677;48.488;13.436;2023-04-03T01:43:06;1.30;;;1.23;;
11238;SDS011;5677;48.488;13.436;2023-04-03T01:45:33;2.20;;;1.60;;
11238;SDS011;5677;48.488;13.436;2023-04-03T01:48:00;1.50;;;1.23;;
11238;SDS011;5677;48.488;13.436;2023-04-03T01:50:28;1.90;;;1.30;;
11238;SDS011;5677;48.488;13.436;2023-04-03T01:52:55;1.40;;;1.30;;
11238;SDS011;5677;48.488;13.436;2023-04-03T01:55:22;2.07;;;1.50;;
11238;SDS011;5677;48.488;13.436;2023-04-03T01:57:48;1.60;;;1.50;;
11238;SDS011;5677;48.488;13.436;2023-04-03T02:00:15;1.33;;;1.23;;
11238;SDS011;5677;48.488;13.436;2023-04-03T02:02:42;2.27;;;1.27;;
11238;SDS011;5677;48.488;13.436;2023-04-03T02:05:09;1.30;;;1.20;;
11238;SDS011;5677;48.488;13.436;2023-04-03T02:07:37;1.87;;;1.50;;
11238;SDS011;5677;48.488;13.436;2023-04-03T02:10:04;1.73;;;1.63;;
11238;SDS011;5677;48.488;13.436;2023-04-03T02:12:31;1.40;;;1.27;;
11238;SDS011;5677;48.488;13.436;2023-04-03T02:14:58;2.73;;;1.50;;
11238;SDS011;5677;48.488;13.436;2023-04-03T02:17:25;2.77;;;1.50;;
11238;SDS011;5677;48.488;13.436;2023-04-03T02:19:52;2.00;;;1.30;;
11238;SDS011;5677;48.488;13.436;2023-04-03T02:22:19;1.60;;;1.47;;
11238;SDS011;5677;48.488;13.436;2023-04-03T02:24:47;1.60;;;1.50;;
11238;SDS011;5677;48.488;13.436;2023-04-03T02:27:16;1.57;;;1.47;;
11238;SDS011;5677;48.488;13.436;2023-04-03T02:29:43;1.60;;;1.40;;
11238;SDS011;5677;48.488;13.436;2023-04-03T02:32:10;1.40;;;1.30;;
11238;SDS011;5677;48.488;13.436;2023-04-03T02:34:37;1.80;;;1.40;;
11238;SDS011;5677;48.488;13.436;2023-04-03T02:37:04;1.40;;;1.30;;
11238;SDS011;5677;48.488;13.436;2023-04-03T02:39:31;1.40;;;1.30;;
11238;SDS011;5677;48.488;13.436;2023-04-03T02:41:59;1.67;;;1.30;;
11238;SDS011;5677;48.488;13.436;2023-04-03T02:44:26;1.40;;;1.30;;
11238;SDS011;5677;48.488;13.436;2023-04-03T02:46:53;1.43;;;1.23;;
11238;SDS011;5677;48.488;13.436;2023-04-03T02:49:19;1.40;;;1.30;;
11238;SDS011;5677;48.488;13.436;2023-04-03T02:51:46;1.87;;;1.63;;
11238;SDS011;5677;48.488;13.436;2023-04-03T02:54:13;1.30;;;1.20;;
11238;SDS011;5677;48.488;13.436;2023-04-03T02:56:40;1.43;;;1.33;;
11238;SDS011;5677;48.488;13.436;2023-04-03T02:59:08;1.70;;;1.50;;
11238;SDS011;5677;48.488;13.436;2023-04-03T03:01:35;1.13;;;1.13;;
11238;SDS011;5677;48.488;13.436;2023-04-03T03:04:02;2.47;;;1.40;;
11238;SDS011;5677;48.488;13.436;2023-04-03T03:06:29;2.90;;;1.40;;
11238;SDS011;5677;48.488;13.436;2023-04-03T03:08:55;1.53;;;1.43;;
11238;SDS011;5677;48.488;13.436;2023-04-03T03:11:22;1.43;;;1.30;;
11238;SDS011;5677;48.488;13.436;2023-04-03T03:13:50;1.40;;;1.30;;
11238;SDS011;5677;48.488;13.436;2023-04-03T03:16:18;2.10;;;1.57;;
11238;SDS011;5677;48.488;13.436;2023-04-03T03:18:45;1.97;;;1.20;;
11238;SDS011;5677;48.488;13.436;2023-04-03T03:21:12;1.80;;;1.40;;
11238;SDS011;5677;48.488;13.436;2023-04-03T03:23:39;1.53;;;1.10;;
11238;SDS011;5677;48.488;13.436;2023-04-03T03:26:07;1.60;;;1.50;;
11238;SDS011;5677;48.488;13.436;2023-04-03T03:28:35;1.47;;;1.30;;
11238;SDS011;5677;48.488;13.436;2023-04-03T03:31:03;1.50;;;1.40;;
11238;SDS011;5677;48.488;13.436;2023-04-03T03:33:31;1.43;;;1.30;;
11238;SDS011;5677;48.488;13.436;2023-04-03T03:35:58;2.27;;;1.30;;
11238;SDS011;5677;48.488;13.436;2023-04-03T03:38:25;1.57;;;1.47;;
11238;SDS011;5677;48.488;13.436;2023-04-03T03:40:52;2.60;;;1.60;;
11238;SDS011;5677;48.488;13.436;2023-04-03T03:43:19;1.40;;;1.30;;
11238;SDS011;5677;48.488;13.436;2023-04-03T03:45:46;1.40;;;1.30;;
11238;SDS011;5677;48.488;13.436;2023-04-03T03:48:16;1.37;;;1.27;;
11238;SDS011;5677;48.488;13.436;2023-04-03T03:50:47;1.40;;;1.30;;
11238;SDS011;5677;48.488;13.436;2023-04-03T03:53:15;1.30;;;1.20;;
11238;SDS011;5677;48.488;13.436;2023-04-03T03:55:42;1.83;;;1.40;;
11238;SDS011;5677;48.488;13.436;2023-04-03T03:58:08;1.53;;;1.10;;
11238;SDS011;5677;48.488;13.436;2023-04-03T04:00:35;1.90;;;1.30;;
11238;SDS011;5677;48.488;13.436;2023-04-03T04:03:02;1.50;;;1.40;;
11238;SDS011;5677;48.488;13.436;2023-04-03T04:05:29;2.13;;;1.40;;
11238;SDS011;5677;48.488;13.436;2023-04-03T04:07:58;2.10;;;1.23;;
11238;SDS011;5677;48.488;13.436;2023-04-03T04:10:24;1.50;;;1.40;;
11238;SDS011;5677;48.488;13.436;2023-04-03T04:12:51;1.93;;;1.63;;
11238;SDS011;5677;48.488;13.436;2023-04-03T04:15:18;1.63;;;1.40;;
11238;SDS011;5677;48.488;13.436;2023-04-03T04:17:46;1.60;;;1.50;;
11238;SDS011;5677;48.488;13.436;2023-04-03T04:20:13;1.33;;;1.20;;
11238;SDS011;5677;48.488;13.436;2023-04-03T04:22:40;1.30;;;1.20;;
11238;SDS011;5677;48.488;13.436;2023-04-03T04:25:08;1.83;;;1.50;;
11238;SDS011;5677;48.488;13.436;2023-04-03T04:27:35;1.27;;;1.17;;
11238;SDS011;5677;48.488;13.436;2023-04-03T04:30:02;2.03;;;1.30;;
11238;SDS011;5677;48.488;13.436;2023-04-03T04:32:30;1.40;;;1.30;;
11238;SDS011;5677;48.488;13.436;2023-04-03T04:34:57;1.40;;;1.30;;
11238;SDS011;5677;48.488;13.436;2023-04-03T04:37:23;1.50;;;1.40;;
11238;SDS011;5677;48.488;13.436;2023-04-03T04:39:50;1.83;;;1.40;;
11238;SDS011;5677;48.488;13.436;2023-04-03T04:42:18;1.50;;;1.40;;
11238;SDS011;5677;48.488;13.436;2023-04-03T04:44:45;2.57;;;1.43;;
11238;SDS011;5677;48.488;13.436;2023-04-03T04:47:11;2.40;;;1.20;;
11238;SDS011;5677;48.488;13.436;2023-04-03T04:49:38;1.00;;;1.00;;
11238;SDS011;5677;48.488;13.436;2023-04-03T04:52:05;1.20;;;1.10;;
11238;SDS011;5677;48.488;13.436;2023-04-03T04:54:32;1.57;;;1.30;;
11238;SDS011;5677;48.488;13.436;2023-04-03T04:56:59;1.30;;;1.20;;
11238;SDS011;5677;48.488;13.436;2023-04-03T04:59:27;2.70;;;1.50;;
11238;SDS011;5677;48.488;13.436;2023-04-03T05:01:53;2.10;;;1.37;;
11238;SDS011;5677;48.488;13.436;2023-04-03T05:04:20;2.70;;;1.37;;
11238;SDS011;5677;48.488;13.436;2023-04-03T05:06:47;1.27;;;1.17;;
11238;SDS011;5677;48.488;13.436;2023-04-03T05:09:14;1.80;;;1.50;;
11238;SDS011;5677;48.488;13.436;2023-04-03T05:11:41;2.77;;;1.57;;
11238;SDS011;5677;48.488;13.436;2023-04-03T05:14:08;5.10;;;2.40;;
11238;SDS011;5677;48.488;13.436;2023-04-03T05:16:36;2.60;;;1.47;;
11238;SDS011;5677;48.488;13.436;2023-04-03T05:19:03;2.67;;;1.73;;
11238;SDS011;5677;48.488;13.436;2023-04-03T05:21:30;10.03;;;1.80;;
11238;SDS011;5677;48.488;13.436;2023-04-03T05:23:57;3.57;;;1.87;;
11238;SDS011;5677;48.488;13.436;2023-04-03T05:26:26;2.00;;;1.63;;
11238;SDS011;5677;48.488;13.436;2023-04-03T05:28:53;2.60;;;1.63;;
11238;SDS011;5677;48.488;13.436;2023-04-03T05:31:19;2.50;;;1.53;;
11238;SDS011;5677;48.488;13.436;2023-04-03T05:33:48;2.50;;;1.80;;
11238;SDS011;5677;48.488;13.436;2023-04-03T05:36:14;2.03;;;1.50;;
11238;SDS011;5677;48.488;13.436;2023-04-03T05:38:41;2.83;;;1.60;;
11238;SDS011;5677;48.488;13.436;2023-04-03T05:41:08;2.23;;;1.60;;
11238;SDS011;5677;48.488;13.436;2023-04-03T05:43:35;1.50;;;1.40;;
11238;SDS011;5677;48.488;13.436;2023-04-03T05:46:03;1.93;;;1.53;;
11238;SDS011;5677;48.488;13.436;2023-04-03T05:48:32;1.37;;;1.27;;
11238;SDS011;5677;48.488;13.436;2023-04-03T05:51:01;2.37;;;1.47;;
11238;SDS011;5677;48.488;13.436;2023-04-03T05:53:28;4.67;;;2.00;;
11238;SDS011;5677;48.488;13.436;2023-04-03T05:55:57;3.73;;;1.80;;
11238;SDS011;5677;48.488;13.436;2023-04-03T05:58:24;4.33;;;3.20;;
11238;SDS011;5677;48.488;13.436;2023-04-03T06:00:51;12.80;;;11.50;;
11238;SDS011;5677;48.488;13.436;2023-04-03T06:03:18;15.60;;;13.87;;
11238;SDS011;5677;48.488;13.436;2023-04-03T06:05:45;14.70;;;11.37;;
11238;SDS011;5677;48.488;13.436;2023-04-03T06:08:13;9.93;;;8.03;;
11238;SDS011;5677;48.488;13.436;2023-04-03T06:10:40;7.43;;;6.50;;
11238;SDS011;5677;48.488;13.436;2023-04-03T06:13:07;7.57;;;6.00;;
11238;SDS011;5677;48.488;13.436;2023-04-03T06:15:34;6.87;;;6.13;;
11238;SDS011;5677;48.488;13.436;2023-04-03T06:18:01;8.77;;;5.97;;
11238;SDS011;5677;48.488;13.436;2023-04-03T06:20:28;9.00;;;6.17;;
11238;SDS011;5677;48.488;13.436;2023-04-03T06:22:56;5.83;;;5.23;;
11238;SDS011;5677;48.488;13.436;2023-04-03T06:25:24;8.43;;;5.33;;
11238;SDS011;5677;48.488;13.436;2023-04-03T06:27:51;5.83;;;5.27;;
11238;SDS011;5677;48.488;13.436;2023-04-03T06:30:20;6.47;;;5.40;;
11238;SDS011;5677;48.488;13.436;2023-04-03T06:32:48;6.27;;;4.73;;
11238;SDS011;5677;48.488;13.436;2023-04-03T06:35:15;5.20;;;4.67;;
11238;SDS011;5677;48.488;13.436;2023-04-03T06:37:42;6.80;;;5.30;;
11238;SDS011;5677;48.488;13.436;2023-04-03T06:40:10;5.70;;;4.87;;
11238;SDS011;5677;48.488;13.436;2023-04-03T06:42:45;5.43;;;4.83;;
11238;SDS011;5677;48.488;13.436;2023-04-03T06:45:12;5.97;;;5.37;;
11238;SDS011;5677;48.488;13.436;2023-04-03T06:47:40;5.00;;;4.50;;
11238;SDS011;5677;48.488;13.436;2023-04-03T06:50:07;9.07;;;6.27;;
11238;SDS011;5677;48.488;13.436;2023-04-03T06:52:36;6.07;;;5.40;;
11238;SDS011;5677;48.488;13.436;2023-04-03T06:55:05;5.30;;;4.80;;
11238;SDS011;5677;48.488;13.436;2023-04-03T06:57:32;5.70;;;4.80;;
11238;SDS011;5677;48.488;13.436;2023-04-03T07:00:00;7.30;;;6.70;;
11238;SDS011;5677;48.488;13.436;2023-04-03T07:02:28;7.30;;;4.90;;
11238;SDS011;5677;48.488;13.436;2023-04-03T07:04:55;5.37;;;4.70;;
11238;SDS011;5677;48.488;13.436;2023-04-03T07:07:22;4.77;;;4.37;;
11238;SDS011;5677;48.488;13.436;2023-04-03T07:09:49;5.10;;;4.27;;
11238;SDS011;5677;48.488;13.436;2023-04-03T07:12:16;5.93;;;4.87;;
11238;SDS011;5677;48.488;13.436;2023-04-03T07:14:43;5.97;;;4.67;;
11238;SDS011;5677;48.488;13.436;2023-04-03T07:17:11;4.13;;;3.03;;
11238;SDS011;5677;48.488;13.436;2023-04-03T07:19:38;5.37;;;3.70;;
11238;SDS011;5677;48.488;13.436;2023-04-03T07:22:05;6.90;;;4.50;;
11238;SDS011;5677;48.488;13.436;2023-04-03T07:24:32;5.13;;;3.80;;
11238;SDS011;5677;48.488;13.436;2023-04-03T07:27:00;6.93;;;4.60;;
11238;SDS011;5677;48.488;13.436;2023-04-03T07:29:28;6.53;;;4.73;;
11238;SDS011;5677;48.488;13.436;2023-04-03T07:31:55;6.33;;;4.40;;
11238;SDS011;5677;48.488;13.436;2023-04-03T07:34:23;6.57;;;4.30;;
11238;SDS011;5677;48.488;13.436;2023-04-03T07:36:50;3.87;;;3.50;;
11238;SDS011;5677;48.488;13.436;2023-04-03T07:39:17;5.13;;;4.10;;
11238;SDS011;5677;48.488;13.436;2023-04-03T07:41:43;8.47;;;4.40;;
11238;SDS011;5677;48.488;13.436;2023-04-03T07:44:10;5.97;;;3.80;;
11238;SDS011;5677;48.488;13.436;2023-04-03T07:46:37;5.20;;;3.77;;
11238;SDS011;5677;48.488;13.436;2023-04-03T07:49:04;8.40;;;4.07;;
11238;SDS011;5677;48.488;13.436;2023-04-03T07:51:32;8.00;;;4.10;;
11238;SDS011;5677;48.488;13.436;2023-04-03T07:53:59;5.80;;;3.90;;
11238;SDS011;5677;48.488;13.436;2023-04-03T07:56:26;5.17;;;3.37;;
11238;SDS011;5677;48.488;13.436;2023-04-03T07:58:53;3.90;;;3.10;;
11238;SDS011;5677;48.488;13.436;2023-04-03T08:01:20;3.40;;;2.47;;
11238;SDS011;5677;48.488;13.436;2023-04-03T08:03:47;3.47;;;2.30;;
11238;SDS011;5677;48.488;13.436;2023-04-03T08:06:14;3.87;;;2.00;;
11238;SDS011;5677;48.488;13.436;2023-04-03T08:08:42;3.97;;;2.40;;
11238;SDS011;5677;48.488;13.436;2023-04-03T08:11:09;2.63;;;2.30;;
11238;SDS011;5677;48.488;13.436;2023-04-03T08:13:37;3.60;;;2.50;;
11238;SDS011;5677;48.488;13.436;2023-04-03T08:16:07;5.83;;;2.67;;
11238;SDS011;5677;48.488;13.436;2023-04-03T08:18:36;4.80;;;2.67;;
11238;SDS011;5677;48.488;13.436;2023-04-03T08:21:05;3.40;;;2.60;;
11238;SDS011;5677;48.488;13.436;2023-04-03T08:23:33;2.97;;;2.00;;
11238;SDS011;5677;48.488;13.436;2023-04-03T08:26:05;2.80;;;2.23;;
11238;SDS011;5677;48.488;13.436;2023-04-03T08:28:33;4.63;;;2.40;;
11238;SDS011;5677;48.488;13.436;2023-04-03T08:31:02;3.77;;;2.10;;
11238;SDS011;5677;48.488;13.436;2023-04-03T08:33:31;2.30;;;2.10;;
11238;SDS011;5677;48.488;13.436;2023-04-03T08:35:58;2.57;;;1.93;;
11238;SDS011;5677;48.488;13.436;2023-04-03T08:38:25;3.10;;;1.90;;
11238;SDS011;5677;48.488;13.436;2023-04-03T08:40:59;2.90;;;2.00;;
11238;SDS011;5677;48.488;13.436;2023-04-03T08:43:32;3.10;;;2.00;;
11238;SDS011;5677;48.488;13.436;2023-04-03T08:46:05;2.93;;;1.90;;
11238;SDS011;5677;48.488;13.436;2023-04-03T08:48:38;3.80;;;1.97;;
11238;SDS011;5677;48.488;13.436;2023-04-03T08:51:09;2.20;;;2.00;;
11238;SDS011;5677;48.488;13.436;2023-04-03T08:53:40;2.37;;;1.60;;
11238;SDS011;5677;48.488;13.436;2023-04-03T08:56:10;2.57;;;2.20;;
11238;SDS011;5677;48.488;13.436;2023-04-03T08:58:45;3.20;;;2.00;;
11238;SDS011;5677;48.488;13.436;2023-04-03T09:01:19;3.30;;;1.93;;
11238;SDS011;5677;48.488;13.436;2023-04-03T09:03:49;2.50;;;1.90;;
11238;SDS011;5677;48.488;13.436;2023-04-03T09:06:16;2.00;;;1.80;;
11238;SDS011;5677;48.488;13.436;2023-04-03T09:08:47;3.23;;;2.17;;
11238;SDS011;5677;48.488;13.436;2023-04-03T09:11:20;2.37;;;2.17;;
11238;SDS011;5677;48.488;13.436;2023-04-03T09:13:54;2.47;;;1.70;;
11238;SDS011;5677;48.488;13.436;2023-04-03T09:16:28;4.43;;;2.30;;
11238;SDS011;5677;48.488;13.436;2023-04-03T09:19:02;2.20;;;2.00;;
11238;SDS011;5677;48.488;13.436;2023-04-03T09:21:39;2.30;;;1.70;;
11238;SDS011;5677;48.488;13.436;2023-04-03T09:24:07;2.13;;;1.50;;
11238;SDS011;5677;48.488;13.436;2023-04-03T09:26:39;3.33;;;2.00;;
11238;SDS011;5677;48.488;13.436;2023-04-03T09:29:13;1.97;;;1.60;;
11238;SDS011;5677;48.488;13.436;2023-04-03T09:31:44;1.90;;;1.73;;
11238;SDS011;5677;48.488;13.436;2023-04-03T09:34:14;2.57;;;2.10;;
11238;SDS011;5677;48.488;13.436;2023-04-03T09:36:47;2.07;;;1.87;;
11238;SDS011;5677;48.488;13.436;2023-04-03T09:39:15;3.03;;;1.67;;
11238;SDS011;5677;48.488;13.436;2023-04-03T09:41:54;1.73;;;1.63;;
11238;SDS011;5677;48.488;13.436;2023-04-03T09:44:25;2.83;;;1.73;;
11238;SDS011;5677;48.488;13.436;2023-04-03T09:46:54;3.03;;;1.97;;
11238;SDS011;5677;48.488;13.436;2023-04-03T09:49:21;2.03;;;1.70;;
11238;SDS011;5677;48.488;13.436;2023-04-03T09:51:48;1.60;;;1.50;;
11238;SDS011;5677;48.488;13.436;2023-04-03T09:54:25;1.63;;;1.53;;
11238;SDS011;5677;48.488;13.436;2023-04-03T09:57:06;2.37;;;1.83;;
11238;SDS011;5677;48.488;13.436;2023-04-03T09:59:36;2.70;;;1.83;;
11238;SDS011;5677;48.488;13.436;2023-04-03T10:02:18;2.07;;;1.60;;
11238;SDS011;5677;48.488;13.436;2023-04-03T10:04:49;2.33;;;1.80;;
11238;SDS011;5677;48.488;13.436;2023-04-03T10:07:29;4.83;;;1.60;;
11238;SDS011;5677;48.488;13.436;2023-04-03T10:09:59;2.60;;;1.30;;
11238;SDS011;5677;48.488;13.436;2023-04-03T10:12:29;1.80;;;1.57;;
11238;SDS011;5677;48.488;13.436;2023-04-03T10:14:57;3.37;;;1.70;;
11238;SDS011;5677;48.488;13.436;2023-04-03T10:17:29;3.40;;;1.50;;
11238;SDS011;5677;48.488;13.436;2023-04-03T10:20:06;17.20;;;2.30;;
11238;SDS011;5677;48.488;13.436;2023-04-03T10:22:59;13.23;;;2.27;;
11238;SDS011;5677;48.488;13.436;2023-04-03T10:25:34;5.87;;;1.80;;
11238;SDS011;5677;48.488;13.436;2023-04-03T10:28:08;3.37;;;1.40;;
11238;SDS011;5677;48.488;13.436;2023-04-03T10:30:45;5.03;;;1.83;;
11238;SDS011;5677;48.488;13.436;2023-04-03T10:33:20;4.70;;;1.80;;
11238;SDS011;5677;48.488;13.436;2023-04-03T10:36:01;3.70;;;1.80;;
11238;SDS011;5677;48.488;13.436;2023-04-03T10:38:39;6.10;;;1.70;;
11238;SDS011;5677;48.488;13.436;2023-04-03T10:41:16;6.47;;;1.60;;
11238;SDS011;5677;48.488;13.436;2023-04-03T10:43:52;7.33;;;2.07;;
11238;SDS011;5677;48.488;13.436;2023-04-03T10:46:36;4.13;;;1.77;;
11238;SDS011;5677;48.488;13.436;2023-04-03T10:49:16;5.03;;;1.63;;
11238;SDS011;5677;48.488;13.436;2023-04-03T10:51:53;4.80;;;1.80;;
11238;SDS011;5677;48.488;13.436;2023-04-03T10:54:30;6.83;;;1.90;;
11238;SDS011;5677;48.488;13.436;2023-04-03T10:57:04;7.30;;;1.90;;
11238;SDS011;5677;48.488;13.436;2023-04-03T10:59:33;5.13;;;2.10;;
11238;SDS011;5677;48.488;13.436;2023-04-03T11:02:06;6.93;;;2.40;;
11238;SDS011;5677;48.488;13.436;2023-04-03T11:04:38;5.07;;;2.30;;
11238;SDS011;5677;48.488;13.436;2023-04-03T11:07:08;5.70;;;2.20;;
11238;SDS011;5677;48.488;13.436;2023-04-03T11:09:41;5.60;;;2.50;;
11238;SDS011;5677;48.488;13.436;2023-04-03T11:12:11;9.13;;;3.50;;
11238;SDS011;5677;48.488;13.436;2023-04-03T11:14:43;5.20;;;2.77;;
11238;SDS011;5677;48.488;13.436;2023-04-03T11:17:15;8.83;;;3.30;;
11238;SDS011;5677;48.488;13.436;2023-04-03T11:19:50;5.57;;;3.13;;
11238;SDS011;5677;48.488;13.436;2023-04-03T11:22:26;71.10;;;55.27;;
11238;SDS011;5677;48.488;13.436;2023-04-03T11:24:58;111.53;;;81.83;;
11238;SDS011;5677;48.488;13.436;2023-04-03T11:27:30;120.07;;;92.33;;
11238;SDS011;5677;48.488;13.436;2023-04-03T11:30:05;103.67;;;81.50;;
11238;SDS011;5677;48.488;13.436;2023-04-03T11:32:48;95.10;;;72.37;;
11238;SDS011;5677;48.488;13.436;2023-04-03T11:35:26;89.53;;;70.33;;
11238;SDS011;5677;48.488;13.436;2023-04-03T11:37:54;89.47;;;69.10;;
11238;SDS011;5677;48.488;13.436;2023-04-03T11:40:23;94.93;;;74.40;;
11238;SDS011;5677;48.488;13.436;2023-04-03T11:42:52;98.83;;;77.87;;
11238;SDS011;5677;48.488;13.436;2023-04-03T11:45:31;112.57;;;83.93;;
11238;SDS011;5677;48.488;13.436;2023-04-03T11:48:05;118.03;;;91.97;;
11238;SDS011;5677;48.488;13.436;2023-04-03T11:50:40;117.57;;;92.87;;
11238;SDS011;5677;48.488;13.436;2023-04-03T11:56:03;105.40;;;82.23;;
11238;SDS011;5677;48.488;13.436;2023-04-03T12:01:51;39.43;;;31.03;;
11238;SDS011;5677;48.488;13.436;2023-04-03T12:04:20;36.13;;;26.03;;
11238;SDS011;5677;48.488;13.436;2023-04-03T12:06:50;33.53;;;24.03;;
11238;SDS011;5677;48.488;13.436;2023-04-03T12:09:25;31.67;;;23.77;;
11238;SDS011;5677;48.488;13.436;2023-04-03T12:11:55;28.47;;;21.40;;
11238;SDS011;5677;48.488;13.436;2023-04-03T12:14:24;30.63;;;20.30;;
11238;SDS011;5677;48.488;13.436;2023-04-03T12:16:53;26.50;;;19.53;;
11238;SDS011;5677;48.488;13.436;2023-04-03T12:19:36;27.33;;;18.83;;
11238;SDS011;5677;48.488;13.436;2023-04-03T12:22:15;20.17;;;17.33;;
11238;SDS011;5677;48.488;13.436;2023-04-03T12:24:46;21.67;;;17.30;;
11238;SDS011;5677;48.488;13.436;2023-04-03T12:27:22;24.63;;;16.73;;
11238;SDS011;5677;48.488;13.436;2023-04-03T12:29:59;19.47;;;15.47;;
11238;SDS011;5677;48.488;13.436;2023-04-03T12:32:34;19.73;;;15.87;;
11238;SDS011;5677;48.488;13.436;2023-04-03T12:35:13;18.20;;;14.67;;
11238;SDS011;5677;48.488;13.436;2023-04-03T12:40:59;18.50;;;14.17;;
11238;SDS011;5677;48.488;13.436;2023-04-03T12:43:42;20.40;;;14.77;;
11238;SDS011;5677;48.488;13.436;2023-04-03T12:46:17;19.83;;;13.40;;
11238;SDS011;5677;48.488;13.436;2023-04-03T12:48:47;16.77;;;13.20;;
11238;SDS011;5677;48.488;13.436;2023-04-03T12:51:18;18.00;;;13.30;;
11238;SDS011;5677;48.488;13.436;2023-04-03T12:53:48;19.63;;;13.87;;
11238;SDS011;5677;48.488;13.436;2023-04-03T12:56:18;15.40;;;11.77;;
11238;SDS011;5677;48.488;13.436;2023-04-03T12:58:47;16.20;;;11.53;;
11238;SDS011;5677;48.488;13.436;2023-04-03T13:01:15;14.87;;;11.73;;
11238;SDS011;5677;48.488;13.436;2023-04-03T13:03:44;12.47;;;10.30;;
11238;SDS011;5677;48.488;13.436;2023-04-03T13:06:14;16.90;;;11.83;;
11238;SDS011;5677;48.488;13.436;2023-04-03T13:08:49;13.33;;;10.53;;
11238;SDS011;5677;48.488;13.436;2023-04-03T13:11:16;12.27;;;9.10;;
11238;SDS011;5677;48.488;13.436;2023-04-03T13:13:53;11.17;;;9.17;;
11238;SDS011;5677;48.488;13.436;2023-04-03T13:16:21;11.63;;;9.30;;
11238;SDS011;5677;48.488;13.436;2023-04-03T13:18:50;11.27;;;8.33;;
11238;SDS011;5677;48.488;13.436;2023-04-03T13:21:19;10.37;;;8.07;;
11238;SDS011;5677;48.488;13.436;2023-04-03T13:23:48;10.63;;;8.50;;
11238;SDS011;5677;48.488;13.436;2023-04-03T13:26:18;10.30;;;8.20;;
11238;SDS011;5677;48.488;13.436;2023-04-03T13:28:47;10.63;;;7.00;;
11238;SDS011;5677;48.488;13.436;2023-04-03T13:31:18;9.83;;;8.13;;
11238;SDS011;5677;48.488;13.436;2023-04-03T13:36:38;13.37;;;7.90;;
11238;SDS011;5677;48.488;13.436;2023-04-03T13:39:17;12.13;;;7.77;;
11238;SDS011;5677;48.488;13.436;2023-04-03T13:41:48;13.23;;;9.20;;
11238;SDS011;5677;48.488;13.436;2023-04-03T13:44:18;14.70;;;9.50;;
11238;SDS011;5677;48.488;13.436;2023-04-03T13:46:55;16.13;;;10.47;;
11238;SDS011;5677;48.488;13.436;2023-04-03T13:49:28;17.27;;;10.67;;
11238;SDS011;5677;48.488;13.436;2023-04-03T13:51:59;12.23;;;9.40;;
11238;SDS011;5677;48.488;13.436;2023-04-03T13:54:29;14.20;;;10.50;;
11238;SDS011;5677;48.488;13.436;2023-04-03T13:56:58;17.10;;;11.50;;
11238;SDS011;5677;48.488;13.436;2023-04-03T13:59:27;14.33;;;11.47;;
11238;SDS011;5677;48.488;13.436;2023-04-03T14:01:57;15.50;;;10.97;;
11238;SDS011;5677;48.488;13.436;2023-04-03T14:04:45;20.43;;;11.60;;
11238;SDS011;5677;48.488;13.436;2023-04-03T14:07:24;15.83;;;11.77;;
11238;SDS011;5677;48.488;13.436;2023-04-03T14:09:52;17.60;;;10.97;;
11238;SDS011;5677;48.488;13.436;2023-04-03T14:12:21;15.07;;;11.60;;
11238;SDS011;5677;48.488;13.436;2023-04-03T14:14:52;16.13;;;11.30;;
11238;SDS011;5677;48.488;13.436;2023-04-03T14:17:21;16.17;;;10.80;;
11238;SDS011;5677;48.488;13.436;2023-04-03T14:19:49;15.57;;;10.73;;
11238;SDS011;5677;48.488;13.436;2023-04-03T14:22:18;15.83;;;10.57;;
11238;SDS011;5677;48.488;13.436;2023-04-03T14:24:49;15.33;;;11.50;;
11238;SDS011;5677;48.488;13.436;2023-04-03T14:27:20;14.57;;;10.50;;
11238;SDS011;5677;48.488;13.436;2023-04-03T14:29:49;15.90;;;10.40;;
11238;SDS011;5677;48.488;13.436;2023-04-03T14:32:21;12.80;;;10.63;;
11238;SDS011;5677;48.488;13.436;2023-04-03T14:34:49;14.33;;;10.33;;
11238;SDS011;5677;48.488;13.436;2023-04-03T14:37:17;14.10;;;10.37;;
11238;SDS011;5677;48.488;13.436;2023-04-03T14:39:46;14.50;;;10.97;;
11238;SDS011;5677;48.488;13.436;2023-04-03T14:42:16;12.60;;;10.47;;
11238;SDS011;5677;48.488;13.436;2023-04-03T14:44:44;13.20;;;10.40;;
11238;SDS011;5677;48.488;13.436;2023-04-03T14:47:11;12.93;;;10.23;;
11238;SDS011;5677;48.488;13.436;2023-04-03T14:49:40;14.13;;;10.63;;
11238;SDS011;5677;48.488;13.436;2023-04-03T14:52:09;13.83;;;10.40;;
11238;SDS011;5677;48.488;13.436;2023-04-03T14:54:44;13.23;;;9.43;;
11238;SDS011;5677;48.488;13.436;2023-04-03T14:57:11;12.10;;;9.83;;
11238;SDS011;5677;48.488;13.436;2023-04-03T14:59:41;11.27;;;9.83;;
11238;SDS011;5677;48.488;13.436;2023-04-03T15:02:20;14.57;;;9.60;;
11238;SDS011;5677;48.488;13.436;2023-04-03T15:04:51;14.73;;;10.27;;
11238;SDS011;5677;48.488;13.436;2023-04-03T15:07:17;11.47;;;9.10;;
11238;SDS011;5677;48.488;13.436;2023-04-03T15:09:44;15.03;;;9.97;;